sensor_id;sensor_type;location;lat;lon;timestamp;pressure;altitude;pressure_sealevel;temperature;humidity
72096;BME280;59968;51.084;16.748;2024-03-07T00:00:47;101016.06;;;6.22;74.34
72096;BME280;59968;51.084;16.748;2024-03-07T00:03:31;101019.37;;;6.18;74.27
72096;BME280;59968;51.084;16.748;2024-03-07T00:05:59;101018.23;;;6.14;74.31
72096;BME280;59968;51.084;16.748;2024-03-07T00:08:29;101014.98;;;6.12;74.42
72096;BME280;59968;51.084;16.748;2024-03-07T00:10:58;101017.02;;;6.10;74.40
72096;BME280;59968;51.084;16.748;2024-03-07T00:13:28;101021.41;;;6.06;74.21
72096;BME280;59968;51.084;16.748;2024-03-07T00:15:58;101022.55;;;6.04;74.28
72096;BME280;59968;51.084;16.748;2024-03-07T00:18:36;101021.10;;;6.02;74.27
72096;BME280;59968;51.084;16.748;2024-03-07T00:21:05;101021.09;;;6.00;74.25
72096;BME280;59968;51.084;16.748;2024-03-07T00:23:34;101021.46;;;5.98;74.07
72096;BME280;59968;51.084;16.748;2024-03-07T00:26:02;101022.67;;;5.96;74.03
72096;BME280;59968;51.084;16.748;2024-03-07T00:28:31;101021.33;;;5.94;74.00
72096;BME280;59968;51.084;16.748;2024-03-07T00:31:07;101023.27;;;5.91;73.97
72096;BME280;59968;51.084;16.748;2024-03-07T00:33:35;101023.73;;;5.86;73.81
72096;BME280;59968;51.084;16.748;2024-03-07T00:36:25;101021.88;;;5.82;73.92
72096;BME280;59968;51.084;16.748;2024-03-07T00:38:54;101015.79;;;5.82;73.79
72096;BME280;59968;51.084;16.748;2024-03-07T00:41:25;101014.87;;;5.79;73.89
72096;BME280;59968;51.084;16.748;2024-03-07T00:43:55;101012.64;;;5.72;73.99
72096;BME280;59968;51.084;16.748;2024-03-07T00:46:24;101015.92;;;5.74;74.03
72096;BME280;59968;51.084;16.748;2024-03-07T00:48:56;101013.29;;;5.70;73.83
72096;BME280;59968;51.084;16.748;2024-03-07T00:51:28;101013.97;;;5.71;73.88
72096;BME280;59968;51.084;16.748;2024-03-07T00:53:58;101014.27;;;5.69;73.78
72096;BME280;59968;51.084;16.748;2024-03-07T00:56:27;101013.63;;;5.65;73.70
72096;BME280;59968;51.084;16.748;2024-03-07T00:58:57;101014.09;;;5.64;73.79
72096;BME280;59968;51.084;16.748;2024-03-07T01:01:28;101010.50;;;5.62;73.75
72096;BME280;59968;51.084;16.748;2024-03-07T01:03:57;101009.83;;;5.60;73.83
72096;BME280;59968;51.084;16.748;2024-03-07T01:06:27;101009.02;;;5.46;74.11
72096;BME280;59968;51.084;16.748;2024-03-07T01:08:55;101007.63;;;5.43;74.21
72096;BME280;59968;51.084;16.748;2024-03-07T01:11:27;101011.41;;;5.43;74.25
72096;BME280;59968;51.084;16.748;2024-03-07T01:13:56;101007.39;;;5.40;74.18
72096;BME280;59968;51.084;16.748;2024-03-07T01:16:27;101007.30;;;5.39;74.24
72096;BME280;59968;51.084;16.748;2024-03-07T01:18:56;101005.55;;;5.37;74.21
72096;BME280;59968;51.084;16.748;2024-03-07T01:21:24;101010.09;;;5.39;74.24
72096;BME280;59968;51.084;16.748;2024-03-07T01:23:53;101006.87;;;5.40;74.30
72096;BME280;59968;51.084;16.748;2024-03-07T01:26:22;101007.27;;;5.54;73.90
72096;BME280;59968;51.084;16.748;2024-03-07T01:28:54;101005.18;;;5.54;73.69
72096;BME280;59968;51.084;16.748;2024-03-07T01:31:23;101005.69;;;5.56;73.61
72096;BME280;59968;51.084;16.748;2024-03-07T01:33:52;101006.34;;;5.55;73.42
72096;BME280;59968;51.084;16.748;2024-03-07T01:36:21;101008.39;;;5.55;73.35
72096;BME280;59968;51.084;16.748;2024-03-07T01:38:50;101009.79;;;5.55;73.32
72096;BME280;59968;51.084;16.748;2024-03-07T01:41:20;101002.61;;;5.49;73.25
72096;BME280;59968;51.084;16.748;2024-03-07T01:43:49;101012.11;;;5.54;73.16
72096;BME280;59968;51.084;16.748;2024-03-07T01:46:18;101008.61;;;5.53;73.15
72096;BME280;59968;51.084;16.748;2024-03-07T01:48:47;101008.01;;;5.54;73.13
72096;BME280;59968;51.084;16.748;2024-03-07T01:51:16;101010.31;;;5.55;73.08
72096;BME280;59968;51.084;16.748;2024-03-07T01:53:46;101008.20;;;5.53;73.09
72096;BME280;59968;51.084;16.748;2024-03-07T01:56:16;101013.68;;;5.55;73.02
72096;BME280;59968;51.084;16.748;2024-03-07T01:58:47;101009.43;;;5.44;73.15
72096;BME280;59968;51.084;16.748;2024-03-07T02:01:16;101012.33;;;5.39;73.39
72096;BME280;59968;51.084;16.748;2024-03-07T02:03:44;101010.58;;;5.43;73.23
72096;BME280;59968;51.084;16.748;2024-03-07T02:06:13;101010.91;;;5.35;73.15
72096;BME280;59968;51.084;16.748;2024-03-07T02:08:42;101011.05;;;5.35;73.18
72096;BME280;59968;51.084;16.748;2024-03-07T02:11:10;101007.74;;;5.36;73.14
72096;BME280;59968;51.084;16.748;2024-03-07T02:13:39;101004.14;;;5.38;73.09
72096;BME280;59968;51.084;16.748;2024-03-07T02:16:08;101001.70;;;5.37;72.90
72096;BME280;59968;51.084;16.748;2024-03-07T02:18:37;101009.30;;;5.34;72.76
72096;BME280;59968;51.084;16.748;2024-03-07T02:21:07;101007.27;;;5.28;73.01
72096;BME280;59968;51.084;16.748;2024-03-07T02:23:37;101007.05;;;5.29;73.01
72096;BME280;59968;51.084;16.748;2024-03-07T02:26:06;101007.18;;;5.29;72.79
72096;BME280;59968;51.084;16.748;2024-03-07T02:28:36;101006.46;;;5.28;72.92
72096;BME280;59968;51.084;16.748;2024-03-07T02:31:04;101009.19;;;5.32;72.54
72096;BME280;59968;51.084;16.748;2024-03-07T02:33:33;101008.16;;;5.34;72.25
72096;BME280;59968;51.084;16.748;2024-03-07T02:36:02;101006.75;;;5.36;72.16
72096;BME280;59968;51.084;16.748;2024-03-07T02:38:31;101008.70;;;5.39;72.08
72096;BME280;59968;51.084;16.748;2024-03-07T02:41:00;101011.42;;;5.43;71.85
72096;BME280;59968;51.084;16.748;2024-03-07T02:43:28;101013.63;;;5.41;71.78
72096;BME280;59968;51.084;16.748;2024-03-07T02:45:57;101006.27;;;5.33;72.00
72096;BME280;59968;51.084;16.748;2024-03-07T02:48:26;101016.21;;;5.34;71.97
72096;BME280;59968;51.084;16.748;2024-03-07T02:50:55;101012.91;;;5.32;71.88
72096;BME280;59968;51.084;16.748;2024-03-07T02:53:23;101011.36;;;5.32;71.83
72096;BME280;59968;51.084;16.748;2024-03-07T02:55:52;101014.98;;;5.32;71.91
72096;BME280;59968;51.084;16.748;2024-03-07T02:58:20;101006.89;;;5.30;71.86
72096;BME280;59968;51.084;16.748;2024-03-07T03:00:49;101010.36;;;5.30;71.83
72096;BME280;59968;51.084;16.748;2024-03-07T03:03:17;101009.42;;;5.31;71.64
72096;BME280;59968;51.084;16.748;2024-03-07T03:05:46;101011.89;;;5.32;71.64
72096;BME280;59968;51.084;16.748;2024-03-07T03:08:14;101012.94;;;5.35;71.40
72096;BME280;59968;51.084;16.748;2024-03-07T03:10:43;101011.92;;;5.36;71.39
72096;BME280;59968;51.084;16.748;2024-03-07T03:13:12;101013.45;;;5.33;71.35
72096;BME280;59968;51.084;16.748;2024-03-07T03:15:41;101007.67;;;5.27;71.39
72096;BME280;59968;51.084;16.748;2024-03-07T03:18:09;101012.53;;;5.27;71.36
72096;BME280;59968;51.084;16.748;2024-03-07T03:20:38;101013.57;;;5.24;71.54
72096;BME280;59968;51.084;16.748;2024-03-07T03:23:08;101015.83;;;5.20;71.47
72096;BME280;59968;51.084;16.748;2024-03-07T03:25:48;101014.42;;;5.19;71.51
72096;BME280;59968;51.084;16.748;2024-03-07T03:28:19;101012.25;;;5.13;71.59
72096;BME280;59968;51.084;16.748;2024-03-07T03:30:50;101017.83;;;5.12;71.51
72096;BME280;59968;51.084;16.748;2024-03-07T03:33:21;101015.92;;;5.12;71.56
72096;BME280;59968;51.084;16.748;2024-03-07T03:35:56;101013.70;;;5.14;71.58
72096;BME280;59968;51.084;16.748;2024-03-07T03:38:24;101012.42;;;5.14;71.43
72096;BME280;59968;51.084;16.748;2024-03-07T03:40:54;101007.85;;;5.12;71.61
72096;BME280;59968;51.084;16.748;2024-03-07T03:43:23;101009.27;;;5.10;71.52
72096;BME280;59968;51.084;16.748;2024-03-07T03:45:53;101012.27;;;5.07;71.55
72096;BME280;59968;51.084;16.748;2024-03-07T03:48:21;101008.02;;;5.04;71.61
72096;BME280;59968;51.084;16.748;2024-03-07T03:50:50;101009.05;;;5.03;71.73
72096;BME280;59968;51.084;16.748;2024-03-07T03:53:19;101007.02;;;5.02;71.82
72096;BME280;59968;51.084;16.748;2024-03-07T03:55:48;101009.40;;;4.99;71.95
72096;BME280;59968;51.084;16.748;2024-03-07T03:58:17;101007.21;;;4.98;71.89
72096;BME280;59968;51.084;16.748;2024-03-07T04:00:46;101004.92;;;4.99;71.80
72096;BME280;59968;51.084;16.748;2024-03-07T04:03:14;101008.00;;;4.97;71.73
72096;BME280;59968;51.084;16.748;2024-03-07T04:05:43;101011.09;;;4.95;71.51
72096;BME280;59968;51.084;16.748;2024-03-07T04:08:12;101006.50;;;4.91;71.72
72096;BME280;59968;51.084;16.748;2024-03-07T04:10:41;101011.52;;;4.92;71.64
72096;BME280;59968;51.084;16.748;2024-03-07T04:13:30;101011.59;;;4.90;71.70
72096;BME280;59968;51.084;16.748;2024-03-07T04:16:19;101014.30;;;4.86;71.49
72096;BME280;59968;51.084;16.748;2024-03-07T04:18:48;101014.14;;;4.82;71.65
72096;BME280;59968;51.084;16.748;2024-03-07T04:21:17;101010.41;;;4.80;71.62
72096;BME280;59968;51.084;16.748;2024-03-07T04:23:45;101012.48;;;4.76;71.72
72096;BME280;59968;51.084;16.748;2024-03-07T04:26:15;101013.10;;;4.73;71.67
72096;BME280;59968;51.084;16.748;2024-03-07T04:28:43;101018.70;;;4.72;71.77
72096;BME280;59968;51.084;16.748;2024-03-07T04:31:11;101017.09;;;4.70;71.74
72096;BME280;59968;51.084;16.748;2024-03-07T04:33:41;101021.06;;;4.68;71.74
72096;BME280;59968;51.084;16.748;2024-03-07T04:36:10;101025.85;;;4.64;71.87
72096;BME280;59968;51.084;16.748;2024-03-07T04:38:40;101022.15;;;4.61;71.99
72096;BME280;59968;51.084;16.748;2024-03-07T04:41:12;101022.74;;;4.58;72.14
72096;BME280;59968;51.084;16.748;2024-03-07T04:43:44;101021.35;;;4.56;72.10
72096;BME280;59968;51.084;16.748;2024-03-07T04:46:13;101009.41;;;4.48;72.24
72096;BME280;59968;51.084;16.748;2024-03-07T04:48:41;101020.70;;;4.56;72.32
72096;BME280;59968;51.084;16.748;2024-03-07T04:51:10;101018.73;;;4.55;72.30
72096;BME280;59968;51.084;16.748;2024-03-07T04:53:39;101023.77;;;4.54;72.38
72096;BME280;59968;51.084;16.748;2024-03-07T04:56:10;101026.02;;;4.56;72.37
72096;BME280;59968;51.084;16.748;2024-03-07T04:58:39;101029.02;;;4.57;72.36
72096;BME280;59968;51.084;16.748;2024-03-07T05:01:07;101028.48;;;4.55;72.52
72096;BME280;59968;51.084;16.748;2024-03-07T05:03:36;101029.55;;;4.65;72.42
72096;BME280;59968;51.084;16.748;2024-03-07T05:06:05;101032.83;;;4.61;72.57
72096;BME280;59968;51.084;16.748;2024-03-07T05:08:34;101036.98;;;4.62;72.63
72096;BME280;59968;51.084;16.748;2024-03-07T05:11:03;101038.66;;;4.62;72.58
72096;BME280;59968;51.084;16.748;2024-03-07T05:13:32;101044.16;;;4.64;72.73
72096;BME280;59968;51.084;16.748;2024-03-07T05:16:01;101046.54;;;4.65;72.76
72096;BME280;59968;51.084;16.748;2024-03-07T05:18:33;101044.85;;;4.66;72.81
72096;BME280;59968;51.084;16.748;2024-03-07T05:21:01;101047.61;;;4.68;72.79
72096;BME280;59968;51.084;16.748;2024-03-07T05:23:50;101047.60;;;4.68;72.80
72096;BME280;59968;51.084;16.748;2024-03-07T05:26:22;101047.75;;;4.68;72.82
72096;BME280;59968;51.084;16.748;2024-03-07T05:28:50;101052.94;;;4.72;72.80
72096;BME280;59968;51.084;16.748;2024-03-07T05:31:20;101054.44;;;4.78;72.43
72096;BME280;59968;51.084;16.748;2024-03-07T05:33:49;101047.45;;;4.70;72.60
72096;BME280;59968;51.084;16.748;2024-03-07T05:36:21;101060.29;;;4.78;72.47
72096;BME280;59968;51.084;16.748;2024-03-07T05:38:50;101063.94;;;4.79;72.49
72096;BME280;59968;51.084;16.748;2024-03-07T05:41:20;101059.70;;;4.79;72.35
72096;BME280;59968;51.084;16.748;2024-03-07T05:43:49;101066.00;;;4.81;72.43
72096;BME280;59968;51.084;16.748;2024-03-07T05:46:19;101070.06;;;4.83;72.34
72096;BME280;59968;51.084;16.748;2024-03-07T05:48:48;101070.04;;;4.86;72.43
72096;BME280;59968;51.084;16.748;2024-03-07T05:51:20;101072.83;;;4.89;72.21
72096;BME280;59968;51.084;16.748;2024-03-07T05:53:49;101070.34;;;4.92;71.98
72096;BME280;59968;51.084;16.748;2024-03-07T05:56:18;101070.69;;;4.91;71.98
72096;BME280;59968;51.084;16.748;2024-03-07T05:58:47;101066.74;;;4.94;71.93
72096;BME280;59968;51.084;16.748;2024-03-07T06:01:15;101072.13;;;4.97;71.65
72096;BME280;59968;51.084;16.748;2024-03-07T06:03:44;101073.76;;;5.00;71.58
72096;BME280;59968;51.084;16.748;2024-03-07T06:06:14;101069.92;;;5.02;71.58
72096;BME280;59968;51.084;16.748;2024-03-07T06:08:46;101073.61;;;5.07;71.47
72096;BME280;59968;51.084;16.748;2024-03-07T06:11:14;101076.60;;;5.10;71.36
72096;BME280;59968;51.084;16.748;2024-03-07T06:13:48;101082.18;;;5.14;71.21
72096;BME280;59968;51.084;16.748;2024-03-07T06:16:17;101084.88;;;5.19;71.09
72096;BME280;59968;51.084;16.748;2024-03-07T06:18:46;101085.73;;;5.23;70.88
72096;BME280;59968;51.084;16.748;2024-03-07T06:21:16;101085.70;;;5.27;70.56
72096;BME280;59968;51.084;16.748;2024-03-07T06:23:45;101087.27;;;5.29;70.31
72096;BME280;59968;51.084;16.748;2024-03-07T06:26:16;101089.44;;;5.33;70.18
72096;BME280;59968;51.084;16.748;2024-03-07T06:28:55;101093.26;;;5.37;70.05
72096;BME280;59968;51.084;16.748;2024-03-07T06:31:24;101096.04;;;5.42;70.09
72096;BME280;59968;51.084;16.748;2024-03-07T06:33:53;101101.33;;;5.48;69.80
72096;BME280;59968;51.084;16.748;2024-03-07T06:36:23;101101.50;;;5.52;69.54
72096;BME280;59968;51.084;16.748;2024-03-07T06:38:53;101101.72;;;5.57;69.51
72096;BME280;59968;51.084;16.748;2024-03-07T06:41:22;101102.63;;;5.62;69.26
72096;BME280;59968;51.084;16.748;2024-03-07T06:43:54;101104.14;;;5.68;69.09
72096;BME280;59968;51.084;16.748;2024-03-07T06:46:23;101106.69;;;5.68;68.93
72096;BME280;59968;51.084;16.748;2024-03-07T06:48:52;101110.02;;;5.69;68.64
72096;BME280;59968;51.084;16.748;2024-03-07T06:51:22;101100.73;;;5.66;68.58
72096;BME280;59968;51.084;16.748;2024-03-07T06:53:51;101112.06;;;5.79;68.01
72096;BME280;59968;51.084;16.748;2024-03-07T06:56:20;101116.50;;;5.81;68.08
72096;BME280;59968;51.084;16.748;2024-03-07T06:58:50;101118.39;;;5.85;67.95
72096;BME280;59968;51.084;16.748;2024-03-07T07:01:18;101125.95;;;5.87;67.23
72096;BME280;59968;51.084;16.748;2024-03-07T07:03:48;101125.08;;;5.89;66.78
72096;BME280;59968;51.084;16.748;2024-03-07T07:06:17;101126.14;;;5.93;66.22
72096;BME280;59968;51.084;16.748;2024-03-07T07:08:47;101126.77;;;5.97;65.86
72096;BME280;59968;51.084;16.748;2024-03-07T07:11:17;101123.83;;;6.01;65.24
72096;BME280;59968;51.084;16.748;2024-03-07T07:13:46;101125.66;;;6.05;64.57
72096;BME280;59968;51.084;16.748;2024-03-07T07:16:15;101127.94;;;6.06;64.28
72096;BME280;59968;51.084;16.748;2024-03-07T07:18:48;101127.64;;;6.10;64.04
72096;BME280;59968;51.084;16.748;2024-03-07T07:21:17;101125.73;;;6.12;63.88
72096;BME280;59968;51.084;16.748;2024-03-07T07:23:45;101127.27;;;6.16;63.76
72096;BME280;59968;51.084;16.748;2024-03-07T07:26:15;101129.98;;;6.19;62.75
72096;BME280;59968;51.084;16.748;2024-03-07T07:28:44;101126.27;;;6.21;62.22
72096;BME280;59968;51.084;16.748;2024-03-07T07:31:13;101131.06;;;6.25;62.43
72096;BME280;59968;51.084;16.748;2024-03-07T07:33:42;101131.71;;;6.29;62.41
72096;BME280;59968;51.084;16.748;2024-03-07T07:36:12;101129.44;;;6.31;62.00
72096;BME280;59968;51.084;16.748;2024-03-07T07:38:41;101128.20;;;6.35;61.80
72096;BME280;59968;51.084;16.748;2024-03-07T07:41:10;101127.08;;;6.36;61.52
72096;BME280;59968;51.084;16.748;2024-03-07T07:43:40;101127.45;;;6.35;61.43
72096;BME280;59968;51.084;16.748;2024-03-07T07:46:11;101129.13;;;6.30;61.34
72096;BME280;59968;51.084;16.748;2024-03-07T07:48:39;101128.95;;;6.25;61.46
72096;BME280;59968;51.084;16.748;2024-03-07T07:51:08;101128.40;;;6.31;61.60
72096;BME280;59968;51.084;16.748;2024-03-07T07:53:38;101128.05;;;6.42;61.55
72096;BME280;59968;51.084;16.748;2024-03-07T07:56:08;101130.27;;;6.46;61.56
72096;BME280;59968;51.084;16.748;2024-03-07T07:58:36;101128.63;;;6.46;60.93
72096;BME280;59968;51.084;16.748;2024-03-07T08:01:06;101132.17;;;6.49;61.02
72096;BME280;59968;51.084;16.748;2024-03-07T08:03:38;101129.80;;;6.52;60.99
72096;BME280;59968;51.084;16.748;2024-03-07T08:06:09;101130.95;;;6.59;60.80
72096;BME280;59968;51.084;16.748;2024-03-07T08:08:37;101132.89;;;6.58;60.44
72096;BME280;59968;51.084;16.748;2024-03-07T08:11:07;101130.35;;;6.58;60.47
72096;BME280;59968;51.084;16.748;2024-03-07T08:13:36;101133.08;;;6.64;60.93
72096;BME280;59968;51.084;16.748;2024-03-07T08:16:05;101134.04;;;6.70;60.57
72096;BME280;59968;51.084;16.748;2024-03-07T08:18:35;101132.85;;;6.73;60.47
72096;BME280;59968;51.084;16.748;2024-03-07T08:21:04;101138.64;;;6.77;60.60
72096;BME280;59968;51.084;16.748;2024-03-07T08:23:34;101135.55;;;6.77;60.16
72096;BME280;59968;51.084;16.748;2024-03-07T08:26:03;101130.61;;;6.80;59.88
72096;BME280;59968;51.084;16.748;2024-03-07T08:28:34;101135.73;;;6.81;59.29
72096;BME280;59968;51.084;16.748;2024-03-07T08:31:03;101135.96;;;6.80;59.23
72096;BME280;59968;51.084;16.748;2024-03-07T08:33:32;101132.48;;;6.82;58.75
72096;BME280;59968;51.084;16.748;2024-03-07T08:36:02;101133.19;;;6.89;58.72
72096;BME280;59968;51.084;16.748;2024-03-07T08:38:32;101132.45;;;6.86;58.55
72096;BME280;59968;51.084;16.748;2024-03-07T08:41:02;101133.49;;;6.84;58.32
72096;BME280;59968;51.084;16.748;2024-03-07T08:43:30;101132.18;;;6.85;59.14
72096;BME280;59968;51.084;16.748;2024-03-07T08:45:59;101134.30;;;6.88;59.06
72096;BME280;59968;51.084;16.748;2024-03-07T08:48:28;101135.61;;;6.94;58.98
72096;BME280;59968;51.084;16.748;2024-03-07T08:50:57;101137.85;;;6.98;58.66
72096;BME280;59968;51.084;16.748;2024-03-07T08:53:25;101140.80;;;6.98;59.06
72096;BME280;59968;51.084;16.748;2024-03-07T08:55:55;101142.86;;;6.94;58.86
72096;BME280;59968;51.084;16.748;2024-03-07T08:58:23;101141.15;;;6.94;58.24
72096;BME280;59968;51.084;16.748;2024-03-07T09:00:52;101139.75;;;6.96;58.42
72096;BME280;59968;51.084;16.748;2024-03-07T09:03:21;101139.88;;;7.02;58.11
72096;BME280;59968;51.084;16.748;2024-03-07T09:05:53;101126.59;;;6.99;57.74
72096;BME280;59968;51.084;16.748;2024-03-07T09:08:24;101144.20;;;7.10;57.66
72096;BME280;59968;51.084;16.748;2024-03-07T09:10:54;101141.43;;;7.12;57.68
72096;BME280;59968;51.084;16.748;2024-03-07T09:13:24;101141.16;;;7.17;57.37
72096;BME280;59968;51.084;16.748;2024-03-07T09:15:52;101140.67;;;7.28;57.19
72096;BME280;59968;51.084;16.748;2024-03-07T09:18:21;101143.46;;;7.36;56.68
72096;BME280;59968;51.084;16.748;2024-03-07T09:20:53;101141.36;;;7.38;56.66
72096;BME280;59968;51.084;16.748;2024-03-07T09:23:22;101141.24;;;7.36;56.14
72096;BME280;59968;51.084;16.748;2024-03-07T09:25:51;101139.83;;;7.35;56.18
72096;BME280;59968;51.084;16.748;2024-03-07T09:28:20;101140.42;;;7.44;55.97
72096;BME280;59968;51.084;16.748;2024-03-07T09:30:48;101142.59;;;7.43;55.60
72096;BME280;59968;51.084;16.748;2024-03-07T09:33:17;101139.55;;;7.44;55.32
72096;BME280;59968;51.084;16.748;2024-03-07T09:35:48;101141.59;;;7.43;54.80
72096;BME280;59968;51.084;16.748;2024-03-07T09:38:17;101138.30;;;7.39;54.95
72096;BME280;59968;51.084;16.748;2024-03-07T09:40:47;101139.15;;;7.40;55.32
72096;BME280;59968;51.084;16.748;2024-03-07T09:43:17;101140.06;;;7.41;54.95
72096;BME280;59968;51.084;16.748;2024-03-07T09:45:49;101144.00;;;7.41;54.81
72096;BME280;59968;51.084;16.748;2024-03-07T09:48:19;101141.34;;;7.44;55.38
72096;BME280;59968;51.084;16.748;2024-03-07T09:50:52;101140.04;;;7.50;54.72
72096;BME280;59968;51.084;16.748;2024-03-07T09:53:20;101142.61;;;7.41;54.22
72096;BME280;59968;51.084;16.748;2024-03-07T09:55:50;101144.14;;;7.43;54.41
72096;BME280;59968;51.084;16.748;2024-03-07T09:58:19;101143.77;;;7.44;54.25
72096;BME280;59968;51.084;16.748;2024-03-07T10:00:49;101142.73;;;7.40;53.86
72096;BME280;59968;51.084;16.748;2024-03-07T10:03:20;101144.81;;;7.42;53.47
72096;BME280;59968;51.084;16.748;2024-03-07T10:05:53;101140.71;;;7.42;53.59
72096;BME280;59968;51.084;16.748;2024-03-07T10:08:23;101144.27;;;7.44;53.80
72096;BME280;59968;51.084;16.748;2024-03-07T10:10:54;101141.40;;;7.40;53.85
72096;BME280;59968;51.084;16.748;2024-03-07T10:13:24;101141.80;;;7.37;54.03
72096;BME280;59968;51.084;16.748;2024-03-07T10:15:56;101144.49;;;7.33;54.16
72096;BME280;59968;51.084;16.748;2024-03-07T10:18:28;101146.94;;;7.31;54.54
72096;BME280;59968;51.084;16.748;2024-03-07T10:20:58;101146.75;;;7.32;54.35
72096;BME280;59968;51.084;16.748;2024-03-07T10:23:29;101148.94;;;7.31;54.06
72096;BME280;59968;51.084;16.748;2024-03-07T10:25:58;101150.21;;;7.27;54.21
72096;BME280;59968;51.084;16.748;2024-03-07T10:28:27;101148.55;;;7.25;54.32
72096;BME280;59968;51.084;16.748;2024-03-07T10:30:59;101149.21;;;7.23;54.46
72096;BME280;59968;51.084;16.748;2024-03-07T10:33:29;101148.11;;;7.24;54.67
72096;BME280;59968;51.084;16.748;2024-03-07T10:36:01;101148.91;;;7.32;54.51
72096;BME280;59968;51.084;16.748;2024-03-07T10:38:30;101145.89;;;7.36;54.57
72096;BME280;59968;51.084;16.748;2024-03-07T10:41:00;101145.60;;;7.37;54.55
72096;BME280;59968;51.084;16.748;2024-03-07T10:43:36;101147.30;;;7.39;55.01
72096;BME280;59968;51.084;16.748;2024-03-07T10:46:07;101151.10;;;7.43;55.02
72096;BME280;59968;51.084;16.748;2024-03-07T10:48:39;101148.00;;;7.41;55.44
72096;BME280;59968;51.084;16.748;2024-03-07T10:54:09;101147.41;;;7.36;55.86
72096;BME280;59968;51.084;16.748;2024-03-07T10:59:49;101139.57;;;7.27;55.99
72096;BME280;59968;51.084;16.748;2024-03-07T11:02:34;101140.15;;;7.21;55.85
72096;BME280;59968;51.084;16.748;2024-03-07T11:05:07;101138.59;;;7.12;56.07
72096;BME280;59968;51.084;16.748;2024-03-07T11:07:40;101137.23;;;7.08;56.00
72096;BME280;59968;51.084;16.748;2024-03-07T11:10:13;101139.59;;;7.07;55.92
72096;BME280;59968;51.084;16.748;2024-03-07T11:12:42;101136.98;;;7.00;55.54
72096;BME280;59968;51.084;16.748;2024-03-07T11:15:12;101139.93;;;7.14;54.94
72096;BME280;59968;51.084;16.748;2024-03-07T11:17:44;101135.95;;;7.23;54.82
72096;BME280;59968;51.084;16.748;2024-03-07T11:20:22;101134.70;;;7.27;54.29
72096;BME280;59968;51.084;16.748;2024-03-07T11:22:52;101129.59;;;7.29;54.81
72096;BME280;59968;51.084;16.748;2024-03-07T11:25:26;101131.17;;;7.35;54.55
72096;BME280;59968;51.084;16.748;2024-03-07T11:27:56;101133.54;;;7.32;54.79
72096;BME280;59968;51.084;16.748;2024-03-07T11:30:26;101134.34;;;7.31;54.74
72096;BME280;59968;51.084;16.748;2024-03-07T11:32:55;101131.75;;;7.31;54.70
72096;BME280;59968;51.084;16.748;2024-03-07T11:35:33;101128.82;;;7.36;55.24
72096;BME280;59968;51.084;16.748;2024-03-07T11:38:07;101123.65;;;7.45;54.75
72096;BME280;59968;51.084;16.748;2024-03-07T11:43:05;101119.76;;;7.39;54.31
72096;BME280;59968;51.084;16.748;2024-03-07T11:45:34;101118.19;;;7.38;54.84
72096;BME280;59968;51.084;16.748;2024-03-07T11:48:07;101114.59;;;7.43;54.64
72096;BME280;59968;51.084;16.748;2024-03-07T11:50:38;101115.54;;;7.40;54.62
72096;BME280;59968;51.084;16.748;2024-03-07T11:53:09;101114.33;;;7.42;54.43
72096;BME280;59968;51.084;16.748;2024-03-07T11:55:39;101112.95;;;7.40;54.32
72096;BME280;59968;51.084;16.748;2024-03-07T11:58:18;101109.19;;;7.38;54.93
72096;BME280;59968;51.084;16.748;2024-03-07T12:00:51;101106.52;;;7.41;54.44
72096;BME280;59968;51.084;16.748;2024-03-07T12:03:21;101105.98;;;7.38;54.28
72096;BME280;59968;51.084;16.748;2024-03-07T12:05:52;101104.55;;;7.31;54.27
72096;BME280;59968;51.084;16.748;2024-03-07T12:08:22;101108.91;;;7.25;54.32
72096;BME280;59968;51.084;16.748;2024-03-07T12:10:55;101103.83;;;7.25;54.81
72096;BME280;59968;51.084;16.748;2024-03-07T12:13:27;101098.50;;;7.30;55.72
72096;BME280;59968;51.084;16.748;2024-03-07T12:15:57;101100.66;;;7.36;54.96
72096;BME280;59968;51.084;16.748;2024-03-07T12:18:28;101095.20;;;7.37;54.39
72096;BME280;59968;51.084;16.748;2024-03-07T12:20:58;101095.07;;;7.38;54.22
72096;BME280;59968;51.084;16.748;2024-03-07T12:23:38;101098.44;;;7.39;54.19
72096;BME280;59968;51.084;16.748;2024-03-07T12:26:07;101093.69;;;7.39;54.04
72096;BME280;59968;51.084;16.748;2024-03-07T12:28:36;101095.94;;;7.38;53.73
72096;BME280;59968;51.084;16.748;2024-03-07T12:31:07;101095.38;;;7.35;54.07
72096;BME280;59968;51.084;16.748;2024-03-07T12:33:46;101093.55;;;7.38;54.00
72096;BME280;59968;51.084;16.748;2024-03-07T12:36:21;101088.77;;;7.41;54.52
72096;BME280;59968;51.084;16.748;2024-03-07T12:38:54;101089.09;;;7.41;54.66
72096;BME280;59968;51.084;16.748;2024-03-07T12:41:25;101091.20;;;7.48;54.45
72096;BME280;59968;51.084;16.748;2024-03-07T12:43:54;101093.62;;;7.51;54.58
72096;BME280;59968;51.084;16.748;2024-03-07T12:46:23;101095.42;;;7.51;54.33
72096;BME280;59968;51.084;16.748;2024-03-07T12:48:52;101096.74;;;7.51;54.05
72096;BME280;59968;51.084;16.748;2024-03-07T12:51:21;101099.54;;;7.52;54.07
72096;BME280;59968;51.084;16.748;2024-03-07T12:53:53;101095.52;;;7.56;54.11
72096;BME280;59968;51.084;16.748;2024-03-07T12:56:22;101099.18;;;7.61;54.14
72096;BME280;59968;51.084;16.748;2024-03-07T12:58:51;101098.77;;;7.70;54.24
72096;BME280;59968;51.084;16.748;2024-03-07T13:01:22;101098.17;;;7.80;53.51
72096;BME280;59968;51.084;16.748;2024-03-07T13:03:51;101096.77;;;7.80;53.37
72096;BME280;59968;51.084;16.748;2024-03-07T13:06:22;101096.44;;;7.76;53.64
72096;BME280;59968;51.084;16.748;2024-03-07T13:08:59;101089.54;;;7.80;53.68
72096;BME280;59968;51.084;16.748;2024-03-07T13:11:29;101095.13;;;7.86;53.46
72096;BME280;59968;51.084;16.748;2024-03-07T13:14:01;101089.73;;;7.88;52.84